sensor_id;sensor_type;location;lat;lon;timestamp;P1;durP1;ratioP1;P2;durP2;ratioP2
12703;SDS011;6416;52.182;7.650;2022-09-09T00:02:04;1.17;;;0.90;;
12703;SDS011;6416;52.182;7.650;2022-09-09T00:05:04;0.85;;;0.85;;
12703;SDS011;6416;52.182;7.650;2022-09-09T00:07:49;1.45;;;1.10;;
12703;SDS011;6416;52.182;7.650;2022-09-09T00:13:09;1.40;;;0.98;;
12703;SDS011;6416;52.182;7.650;2022-09-09T00:23:49;1.13;;;1.00;;
12703;SDS011;6416;52.182;7.650;2022-09-09T00:26:22;7.03;;;1.50;;
12703;SDS011;6416;52.182;7.650;2022-09-09T00:29:22;1.50;;;1.20;;
12703;SDS011;6416;52.182;7.650;2022-09-09T00:31:54;3.70;;;1.30;;
12703;SDS011;6416;52.182;7.650;2022-09-09T00:34:25;1.70;;;1.38;;
12703;SDS011;6416;52.182;7.650;2022-09-09T00:36:52;2.40;;;1.40;;
12703;SDS011;6416;52.182;7.650;2022-09-09T00:39:40;1.55;;;1.30;;
12703;SDS011;6416;52.182;7.650;2022-09-09T00:44:59;2.17;;;1.85;;
12703;SDS011;6416;52.182;7.650;2022-09-09T00:56:12;1.63;;;1.50;;
12703;SDS011;6416;52.182;7.650;2022-09-09T00:58:38;2.65;;;1.42;;
12703;SDS011;6416;52.182;7.650;2022-09-09T01:01:12;1.65;;;1.13;;
12703;SDS011;6416;52.182;7.650;2022-09-09T01:03:41;2.03;;;1.30;;
12703;SDS011;6416;52.182;7.650;2022-09-09T01:06:30;1.80;;;1.30;;
12703;SDS011;6416;52.182;7.650;2022-09-09T01:12:24;4.13;;;1.23;;
12703;SDS011;6416;52.182;7.650;2022-09-09T01:14:49;2.40;;;1.25;;
12703;SDS011;6416;52.182;7.650;2022-09-09T01:22:34;1.88;;;1.13;;
12703;SDS011;6416;52.182;7.650;2022-09-09T01:25:09;2.22;;;1.20;;
12703;SDS011;6416;52.182;7.650;2022-09-09T01:27:37;2.35;;;1.35;;
12703;SDS011;6416;52.182;7.650;2022-09-09T01:30:10;1.40;;;1.05;;
12703;SDS011;6416;52.182;7.650;2022-09-09T01:32:48;1.70;;;1.08;;
12703;SDS011;6416;52.182;7.650;2022-09-09T01:37:52;2.58;;;0.88;;
12703;SDS011;6416;52.182;7.650;2022-09-09T01:40:17;1.60;;;1.00;;
12703;SDS011;6416;52.182;7.650;2022-09-09T01:42:44;1.00;;;0.90;;
12703;SDS011;6416;52.182;7.650;2022-09-09T01:45:09;2.55;;;0.90;;
12703;SDS011;6416;52.182;7.650;2022-09-09T01:47:35;1.95;;;0.95;;
12703;SDS011;6416;52.182;7.650;2022-09-09T01:50:01;2.83;;;1.35;;
12703;SDS011;6416;52.182;7.650;2022-09-09T01:52:27;1.10;;;0.90;;
12703;SDS011;6416;52.182;7.650;2022-09-09T01:54:53;1.90;;;1.05;;
12703;SDS011;6416;52.182;7.650;2022-09-09T01:57:26;0.90;;;0.85;;
12703;SDS011;6416;52.182;7.650;2022-09-09T02:02:29;1.50;;;0.80;;
12703;SDS011;6416;52.182;7.650;2022-09-09T02:10:30;1.30;;;1.15;;
12703;SDS011;6416;52.182;7.650;2022-09-09T02:12:55;1.48;;;1.10;;
12703;SDS011;6416;52.182;7.650;2022-09-09T02:15:30;2.00;;;1.30;;
12703;SDS011;6416;52.182;7.650;2022-09-09T02:18:18;2.65;;;1.30;;
12703;SDS011;6416;52.182;7.650;2022-09-09T02:20:49;1.85;;;1.30;;
12703;SDS011;6416;52.182;7.650;2022-09-09T02:23:17;1.58;;;1.42;;
12703;SDS011;6416;52.182;7.650;2022-09-09T02:25:43;1.48;;;1.38;;
12703;SDS011;6416;52.182;7.650;2022-09-09T02:28:10;3.38;;;1.50;;
12703;SDS011;6416;52.182;7.650;2022-09-09T02:30:39;1.95;;;1.55;;
12703;SDS011;6416;52.182;7.650;2022-09-09T02:33:07;3.40;;;1.55;;
12703;SDS011;6416;52.182;7.650;2022-09-09T02:35:33;2.40;;;1.67;;
12703;SDS011;6416;52.182;7.650;2022-09-09T02:38:01;1.95;;;1.60;;
12703;SDS011;6416;52.182;7.650;2022-09-09T02:40:31;1.83;;;1.52;;
12703;SDS011;6416;52.182;7.650;2022-09-09T02:42:57;1.50;;;1.38;;
12703;SDS011;6416;52.182;7.650;2022-09-09T02:45:24;1.73;;;1.48;;
12703;SDS011;6416;52.182;7.650;2022-09-09T02:53:11;2.65;;;1.75;;
12703;SDS011;6416;52.182;7.650;2022-09-09T02:58:20;2.10;;;1.48;;
12703;SDS011;6416;52.182;7.650;2022-09-09T03:00:47;2.25;;;1.48;;
12703;SDS011;6416;52.182;7.650;2022-09-09T03:03:15;2.97;;;1.75;;
12703;SDS011;6416;52.182;7.650;2022-09-09T03:05:41;1.50;;;1.40;;
12703;SDS011;6416;52.182;7.650;2022-09-09T03:08:08;1.80;;;1.42;;
12703;SDS011;6416;52.182;7.650;2022-09-09T03:10:33;3.35;;;1.45;;
12703;SDS011;6416;52.182;7.650;2022-09-09T03:12:59;1.90;;;1.30;;
12703;SDS011;6416;52.182;7.650;2022-09-09T03:15:24;2.55;;;1.67;;
12703;SDS011;6416;52.182;7.650;2022-09-09T03:17:50;1.35;;;1.23;;
12703;SDS011;6416;52.182;7.650;2022-09-09T03:20:15;1.83;;;1.38;;
12703;SDS011;6416;52.182;7.650;2022-09-09T03:22:41;1.88;;;1.25;;
12703;SDS011;6416;52.182;7.650;2022-09-09T03:25:06;1.95;;;1.50;;
12703;SDS011;6416;52.182;7.650;2022-09-09T03:27:32;1.45;;;1.20;;
12703;SDS011;6416;52.182;7.650;2022-09-09T03:29:58;1.35;;;1.20;;
12703;SDS011;6416;52.182;7.650;2022-09-09T03:32:23;2.67;;;1.48;;
12703;SDS011;6416;52.182;7.650;2022-09-09T03:34:49;1.80;;;1.23;;
12703;SDS011;6416;52.182;7.650;2022-09-09T03:37:15;1.70;;;1.40;;
12703;SDS011;6416;52.182;7.650;2022-09-09T03:39:41;1.30;;;1.20;;
12703;SDS011;6416;52.182;7.650;2022-09-09T03:42:07;1.33;;;1.00;;
12703;SDS011;6416;52.182;7.650;2022-09-09T03:44:32;1.98;;;1.20;;
12703;SDS011;6416;52.182;7.650;2022-09-09T03:46:57;1.40;;;1.30;;
12703;SDS011;6416;52.182;7.650;2022-09-09T03:49:23;2.08;;;1.25;;
12703;SDS011;6416;52.182;7.650;2022-09-09T03:51:48;1.58;;;1.30;;
12703;SDS011;6416;52.182;7.650;2022-09-09T03:54:14;2.17;;;1.30;;
12703;SDS011;6416;52.182;7.650;2022-09-09T03:56:39;1.60;;;1.10;;
12703;SDS011;6416;52.182;7.650;2022-09-09T03:59:05;1.50;;;1.10;;
12703;SDS011;6416;52.182;7.650;2022-09-09T04:01:30;2.33;;;1.20;;
12703;SDS011;6416;52.182;7.650;2022-09-09T04:03:56;2.22;;;1.33;;
12703;SDS011;6416;52.182;7.650;2022-09-09T04:06:21;2.13;;;1.30;;
12703;SDS011;6416;52.182;7.650;2022-09-09T04:08:47;1.20;;;1.02;;
12703;SDS011;6416;52.182;7.650;2022-09-09T04:11:12;1.80;;;1.10;;
12703;SDS011;6416;52.182;7.650;2022-09-09T04:13:38;2.45;;;1.33;;
12703;SDS011;6416;52.182;7.650;2022-09-09T04:16:03;1.58;;;1.33;;
12703;SDS011;6416;52.182;7.650;2022-09-09T04:18:34;1.55;;;1.10;;
12703;SDS011;6416;52.182;7.650;2022-09-09T04:20:59;1.52;;;1.00;;
12703;SDS011;6416;52.182;7.650;2022-09-09T04:23:25;1.67;;;1.55;;
12703;SDS011;6416;52.182;7.650;2022-09-09T04:25:52;2.28;;;1.25;;
12703;SDS011;6416;52.182;7.650;2022-09-09T04:28:21;3.90;;;1.27;;
12703;SDS011;6416;52.182;7.650;2022-09-09T04:30:48;3.42;;;1.48;;
12703;SDS011;6416;52.182;7.650;2022-09-09T04:33:14;1.65;;;1.25;;
12703;SDS011;6416;52.182;7.650;2022-09-09T04:35:46;2.28;;;1.40;;
12703;SDS011;6416;52.182;7.650;2022-09-09T04:38:14;2.15;;;1.08;;
12703;SDS011;6416;52.182;7.650;2022-09-09T04:40:45;1.95;;;1.48;;
12703;SDS011;6416;52.182;7.650;2022-09-09T04:43:11;1.80;;;1.10;;
12703;SDS011;6416;52.182;7.650;2022-09-09T04:45:37;4.10;;;1.40;;
12703;SDS011;6416;52.182;7.650;2022-09-09T04:48:03;1.42;;;1.20;;
12703;SDS011;6416;52.182;7.650;2022-09-09T04:50:28;1.90;;;1.33;;
12703;SDS011;6416;52.182;7.650;2022-09-09T04:52:54;2.45;;;1.70;;
12703;SDS011;6416;52.182;7.650;2022-09-09T04:55:19;1.67;;;1.30;;
12703;SDS011;6416;52.182;7.650;2022-09-09T04:57:45;1.60;;;1.50;;
12703;SDS011;6416;52.182;7.650;2022-09-09T05:00:10;1.92;;;1.42;;
12703;SDS011;6416;52.182;7.650;2022-09-09T05:02:37;1.40;;;1.30;;
12703;SDS011;6416;52.182;7.650;2022-09-09T05:05:03;2.22;;;1.52;;
12703;SDS011;6416;52.182;7.650;2022-09-09T05:07:29;2.60;;;1.63;;
12703;SDS011;6416;52.182;7.650;2022-09-09T05:09:54;2.33;;;1.70;;
12703;SDS011;6416;52.182;7.650;2022-09-09T05:12:19;1.60;;;1.50;;
12703;SDS011;6416;52.182;7.650;2022-09-09T05:14:45;1.90;;;1.67;;
12703;SDS011;6416;52.182;7.650;2022-09-09T05:17:10;2.78;;;1.75;;
12703;SDS011;6416;52.182;7.650;2022-09-09T05:19:36;1.92;;;1.80;;
12703;SDS011;6416;52.182;7.650;2022-09-09T05:22:02;3.38;;;2.00;;
12703;SDS011;6416;52.182;7.650;2022-09-09T05:24:27;1.83;;;1.70;;
12703;SDS011;6416;52.182;7.650;2022-09-09T05:26:53;4.85;;;1.73;;
12703;SDS011;6416;52.182;7.650;2022-09-09T05:29:19;3.03;;;1.67;;
12703;SDS011;6416;52.182;7.650;2022-09-09T05:31:44;2.53;;;1.63;;
12703;SDS011;6416;52.182;7.650;2022-09-09T05:34:11;1.70;;;1.58;;
12703;SDS011;6416;52.182;7.650;2022-09-09T05:36:36;2.28;;;2.00;;
12703;SDS011;6416;52.182;7.650;2022-09-09T05:39:02;2.83;;;1.75;;
12703;SDS011;6416;52.182;7.650;2022-09-09T05:41:27;4.10;;;2.08;;
12703;SDS011;6416;52.182;7.650;2022-09-09T05:43:53;4.10;;;2.22;;
12703;SDS011;6416;52.182;7.650;2022-09-09T05:46:23;2.70;;;1.92;;
12703;SDS011;6416;52.182;7.650;2022-09-09T05:48:49;2.75;;;1.75;;
12703;SDS011;6416;52.182;7.650;2022-09-09T05:51:17;4.43;;;2.13;;
12703;SDS011;6416;52.182;7.650;2022-09-09T05:53:44;3.88;;;1.88;;
12703;SDS011;6416;52.182;7.650;2022-09-09T05:56:12;2.60;;;1.83;;
12703;SDS011;6416;52.182;7.650;2022-09-09T05:58:42;2.72;;;2.00;;
12703;SDS011;6416;52.182;7.650;2022-09-09T06:01:11;4.50;;;2.00;;
12703;SDS011;6416;52.182;7.650;2022-09-09T06:03:39;2.92;;;1.90;;
12703;SDS011;6416;52.182;7.650;2022-09-09T06:06:06;5.10;;;1.98;;
12703;SDS011;6416;52.182;7.650;2022-09-09T06:08:34;4.05;;;2.33;;
12703;SDS011;6416;52.182;7.650;2022-09-09T06:11:02;3.08;;;1.67;;
12703;SDS011;6416;52.182;7.650;2022-09-09T06:13:35;3.42;;;1.95;;
12703;SDS011;6416;52.182;7.650;2022-09-09T06:16:00;3.03;;;1.90;;
12703;SDS011;6416;52.182;7.650;2022-09-09T06:18:26;2.42;;;1.92;;
12703;SDS011;6416;52.182;7.650;2022-09-09T06:20:59;2.97;;;2.20;;
12703;SDS011;6416;52.182;7.650;2022-09-09T06:23:26;3.92;;;2.10;;
12703;SDS011;6416;52.182;7.650;2022-09-09T06:26:05;5.15;;;2.15;;
12703;SDS011;6416;52.182;7.650;2022-09-09T06:28:32;3.70;;;1.83;;
12703;SDS011;6416;52.182;7.650;2022-09-09T06:30:58;2.90;;;1.90;;
12703;SDS011;6416;52.182;7.650;2022-09-09T06:33:36;3.92;;;1.50;;
12703;SDS011;6416;52.182;7.650;2022-09-09T06:36:03;2.83;;;1.80;;
12703;SDS011;6416;52.182;7.650;2022-09-09T06:38:28;3.38;;;1.83;;
12703;SDS011;6416;52.182;7.650;2022-09-09T06:40:55;1.95;;;1.70;;
12703;SDS011;6416;52.182;7.650;2022-09-09T06:43:22;3.47;;;1.95;;
12703;SDS011;6416;52.182;7.650;2022-09-09T06:45:54;7.28;;;2.10;;
12703;SDS011;6416;52.182;7.650;2022-09-09T06:48:21;3.63;;;1.70;;
12703;SDS011;6416;52.182;7.650;2022-09-09T06:50:46;2.88;;;1.88;;
12703;SDS011;6416;52.182;7.650;2022-09-09T06:53:12;2.38;;;1.58;;
12703;SDS011;6416;52.182;7.650;2022-09-09T06:55:40;5.45;;;1.75;;
12703;SDS011;6416;52.182;7.650;2022-09-09T06:58:09;2.50;;;1.65;;
12703;SDS011;6416;52.182;7.650;2022-09-09T07:00:34;2.47;;;1.80;;
12703;SDS011;6416;52.182;7.650;2022-09-09T07:03:00;1.65;;;1.55;;
12703;SDS011;6416;52.182;7.650;2022-09-09T07:05:25;2.55;;;1.52;;
12703;SDS011;6416;52.182;7.650;2022-09-09T07:07:51;1.88;;;1.45;;
12703;SDS011;6416;52.182;7.650;2022-09-09T07:10:16;4.20;;;1.77;;
12703;SDS011;6416;52.182;7.650;2022-09-09T07:12:42;2.60;;;1.98;;
12703;SDS011;6416;52.182;7.650;2022-09-09T07:15:07;4.45;;;1.55;;
12703;SDS011;6416;52.182;7.650;2022-09-09T07:17:33;3.55;;;1.88;;
12703;SDS011;6416;52.182;7.650;2022-09-09T07:19:59;2.55;;;1.77;;
12703;SDS011;6416;52.182;7.650;2022-09-09T07:22:24;2.72;;;1.60;;
12703;SDS011;6416;52.182;7.650;2022-09-09T07:24:50;2.15;;;1.60;;
12703;SDS011;6416;52.182;7.650;2022-09-09T07:27:15;4.75;;;2.08;;
12703;SDS011;6416;52.182;7.650;2022-09-09T07:29:40;3.38;;;1.85;;
12703;SDS011;6416;52.182;7.650;2022-09-09T07:32:06;5.85;;;1.50;;
12703;SDS011;6416;52.182;7.650;2022-09-09T07:34:31;3.55;;;1.70;;
12703;SDS011;6416;52.182;7.650;2022-09-09T07:36:57;3.03;;;1.92;;
12703;SDS011;6416;52.182;7.650;2022-09-09T07:39:22;2.53;;;1.30;;
12703;SDS011;6416;52.182;7.650;2022-09-09T07:41:48;2.65;;;1.25;;
12703;SDS011;6416;52.182;7.650;2022-09-09T07:44:15;4.20;;;1.58;;
12703;SDS011;6416;52.182;7.650;2022-09-09T07:46:43;2.45;;;1.50;;
12703;SDS011;6416;52.182;7.650;2022-09-09T07:49:09;4.43;;;1.38;;
12703;SDS011;6416;52.182;7.650;2022-09-09T07:51:41;3.58;;;1.58;;
12703;SDS011;6416;52.182;7.650;2022-09-09T07:54:08;3.20;;;1.75;;
12703;SDS011;6416;52.182;7.650;2022-09-09T07:56:36;2.80;;;1.30;;
12703;SDS011;6416;52.182;7.650;2022-09-09T07:59:02;2.97;;;1.60;;
12703;SDS011;6416;52.182;7.650;2022-09-09T08:01:29;2.90;;;1.92;;
12703;SDS011;6416;52.182;7.650;2022-09-09T08:03:58;4.03;;;1.70;;
12703;SDS011;6416;52.182;7.650;2022-09-09T08:06:29;5.50;;;1.70;;
12703;SDS011;6416;52.182;7.650;2022-09-09T08:08:56;3.20;;;1.70;;
12703;SDS011;6416;52.182;7.650;2022-09-09T08:11:23;3.22;;;1.50;;
12703;SDS011;6416;52.182;7.650;2022-09-09T08:13:50;5.07;;;1.80;;
12703;SDS011;6416;52.182;7.650;2022-09-09T08:16:17;4.30;;;1.35;;
12703;SDS011;6416;52.182;7.650;2022-09-09T08:18:45;3.00;;;1.55;;
12703;SDS011;6416;52.182;7.650;2022-09-09T08:21:17;4.25;;;1.67;;
12703;SDS011;6416;52.182;7.650;2022-09-09T08:23:45;3.30;;;1.60;;
12703;SDS011;6416;52.182;7.650;2022-09-09T08:28:38;4.68;;;1.55;;
12703;SDS011;6416;52.182;7.650;2022-09-09T08:31:14;5.32;;;1.50;;
12703;SDS011;6416;52.182;7.650;2022-09-09T08:33:42;9.35;;;1.98;;
12703;SDS011;6416;52.182;7.650;2022-09-09T08:36:09;3.70;;;1.70;;
12703;SDS011;6416;52.182;7.650;2022-09-09T08:38:36;2.03;;;1.20;;
12703;SDS011;6416;52.182;7.650;2022-09-09T08:55:40;2.67;;;1.60;;
12703;SDS011;6416;52.182;7.650;2022-09-09T09:01:25;2.30;;;1.38;;
12703;SDS011;6416;52.182;7.650;2022-09-09T09:06:21;3.28;;;1.17;;
12703;SDS011;6416;52.182;7.650;2022-09-09T09:11:59;3.95;;;1.38;;
12703;SDS011;6416;52.182;7.650;2022-09-09T09:14:29;2.80;;;1.25;;
12703;SDS011;6416;52.182;7.650;2022-09-09T09:16:58;3.40;;;1.58;;
12703;SDS011;6416;52.182;7.650;2022-09-09T09:19:27;4.53;;;1.52;;
12703;SDS011;6416;52.182;7.650;2022-09-09T09:21:59;2.63;;;1.33;;
12703;SDS011;6416;52.182;7.650;2022-09-09T09:27:12;3.78;;;1.33;;
12703;SDS011;6416;52.182;7.650;2022-09-09T09:29:39;2.97;;;1.63;;
12703;SDS011;6416;52.182;7.650;2022-09-09T09:32:07;3.53;;;1.17;;
12703;SDS011;6416;52.182;7.650;2022-09-09T09:34:38;5.72;;;1.73;;
12703;SDS011;6416;52.182;7.650;2022-09-09T09:37:07;5.13;;;1.50;;
12703;SDS011;6416;52.182;7.650;2022-09-09T09:39:42;2.67;;;1.00;;
12703;SDS011;6416;52.182;7.650;2022-09-09T09:42:11;4.03;;;1.38;;
12703;SDS011;6416;52.182;7.650;2022-09-09T09:44:38;3.58;;;1.33;;
12703;SDS011;6416;52.182;7.650;2022-09-09T09:47:16;2.03;;;0.98;;
12703;SDS011;6416;52.182;7.650;2022-09-09T09:49:57;3.17;;;1.30;;
12703;SDS011;6416;52.182;7.650;2022-09-09T09:52:25;4.20;;;1.38;;
12703;SDS011;6416;52.182;7.650;2022-09-09T09:54:52;4.90;;;1.20;;
12703;SDS011;6416;52.182;7.650;2022-09-09T09:57:22;2.33;;;1.10;;
12703;SDS011;6416;52.182;7.650;2022-09-09T10:00:12;2.60;;;1.15;;
12703;SDS011;6416;52.182;7.650;2022-09-09T10:02:39;3.67;;;1.10;;
12703;SDS011;6416;52.182;7.650;2022-09-09T10:05:12;3.10;;;1.27;;
12703;SDS011;6416;52.182;7.650;2022-09-09T10:07:43;3.20;;;1.20;;
12703;SDS011;6416;52.182;7.650;2022-09-09T10:10:11;2.22;;;1.10;;
12703;SDS011;6416;52.182;7.650;2022-09-09T10:12:56;2.88;;;1.10;;
12703;SDS011;6416;52.182;7.650;2022-09-09T10:15:52;4.18;;;1.30;;
12703;SDS011;6416;52.182;7.650;2022-09-09T10:18:47;3.65;;;1.33;;
12703;SDS011;6416;52.182;7.650;2022-09-09T10:32:49;2.63;;;1.20;;
12703;SDS011;6416;52.182;7.650;2022-09-09T10:40:47;1.63;;;0.82;;
12703;SDS011;6416;52.182;7.650;2022-09-09T10:49:24;2.22;;;1.02;;
12703;SDS011;6416;52.182;7.650;2022-09-09T10:57:43;4.05;;;1.40;;
12703;SDS011;6416;52.182;7.650;2022-09-09T11:02:42;1.83;;;0.77;;
12703;SDS011;6416;52.182;7.650;2022-09-09T11:08:02;1.88;;;0.80;;
12703;SDS011;6416;52.182;7.650;2022-09-09T11:10:46;2.40;;;0.90;;
12703;SDS011;6416;52.182;7.650;2022-09-09T11:13:43;1.52;;;0.75;;
12703;SDS011;6416;52.182;7.650;2022-09-09T11:19:07;1.63;;;1.10;;
12703;SDS011;6416;52.182;7.650;2022-09-09T11:21:46;1.90;;;0.90;;
12703;SDS011;6416;52.182;7.650;2022-09-09T11:24:15;2.97;;;0.52;;
12703;SDS011;6416;52.182;7.650;2022-09-09T11:26:54;1.50;;;0.55;;
12703;SDS011;6416;52.182;7.650;2022-09-09T11:29:44;5.80;;;0.95;;
12703;SDS011;6416;52.182;7.650;2022-09-09T11:40:44;1.92;;;0.85;;
12703;SDS011;6416;52.182;7.650;2022-09-09T11:43:11;1.42;;;0.70;;
12703;SDS011;6416;52.182;7.650;2022-09-09T11:45:42;3.88;;;0.77;;
12703;SDS011;6416;52.182;7.650;2022-09-09T11:48:57;1.63;;;0.68;;
12703;SDS011;6416;52.182;7.650;2022-09-09T11:51:09;6.95;;;0.98;;
12703;SDS011;6416;52.182;7.650;2022-09-09T11:54:33;1.85;;;0.93;;
12703;SDS011;6416;52.182;7.650;2022-09-09T11:56:57;1.42;;;0.77;;
12703;SDS011;6416;52.182;7.650;2022-09-09T12:01:50;2.03;;;0.60;;
12703;SDS011;6416;52.182;7.650;2022-09-09T12:05:01;1.45;;;0.73;;
12703;SDS011;6416;52.182;7.650;2022-09-09T12:10:38;1.77;;;0.77;;
12703;SDS011;6416;52.182;7.650;2022-09-09T12:12:48;1.10;;;0.80;;
12703;SDS011;6416;52.182;7.650;2022-09-09T12:17:48;3.78;;;1.50;;
12703;SDS011;6416;52.182;7.650;2022-09-09T12:28:26;2.42;;;1.10;;
12703;SDS011;6416;52.182;7.650;2022-09-09T12:31:07;4.78;;;1.02;;
12703;SDS011;6416;52.182;7.650;2022-09-09T12:33:43;2.95;;;1.00;;
12703;SDS011;6416;52.182;7.650;2022-09-09T12:36:12;1.42;;;0.77;;
12703;SDS011;6416;52.182;7.650;2022-09-09T12:38:50;1.92;;;1.10;;
12703;SDS011;6416;52.182;7.650;2022-09-09T12:41:19;2.00;;;1.02;;
12703;SDS011;6416;52.182;7.650;2022-09-09T12:43:49;1.02;;;0.75;;
12703;SDS011;6416;52.182;7.650;2022-09-09T12:46:21;2.92;;;1.10;;
12703;SDS011;6416;52.182;7.650;2022-09-09T12:48:47;3.70;;;0.88;;
12703;SDS011;6416;52.182;7.650;2022-09-09T12:51:17;1.85;;;0.70;;
12703;SDS011;6416;52.182;7.650;2022-09-09T12:53:48;1.75;;;0.73;;
12703;SDS011;6416;52.182;7.650;2022-09-09T12:56:23;2.53;;;1.08;;
12703;SDS011;6416;52.182;7.650;2022-09-09T12:58:52;1.83;;;0.77;;
12703;SDS011;6416;52.182;7.650;2022-09-09T13:01:24;0.98;;;0.60;;
12703;SDS011;6416;52.182;7.650;2022-09-09T13:03:58;2.35;;;0.75;;
12703;SDS011;6416;52.182;7.650;2022-09-09T13:06:25;1.73;;;0.70;;
12703;SDS011;6416;52.182;7.650;2022-09-09T13:08:53;1.23;;;0.65;;
12703;SDS011;6416;52.182;7.650;2022-09-09T13:11:42;0.93;;;0.70;;
12703;SDS011;6416;52.182;7.650;2022-09-09T13:14:18;1.67;;;0.73;;
12703;SDS011;6416;52.182;7.650;2022-09-09T13:17:22;0.77;;;0.50;;
12703;SDS011;6416;52.182;7.650;2022-09-09T13:19:44;0.50;;;0.50;;
12703;SDS011;6416;52.182;7.650;2022-09-09T13:27:37;0.85;;;0.57;;
12703;SDS011;6416;52.182;7.650;2022-09-09T13:30:19;1.35;;;0.52;;
12703;SDS011;6416;52.182;7.650;2022-09-09T13:32:45;1.88;;;0.47;;
12703;SDS011;6416;52.182;7.650;2022-09-09T13:35:23;1.10;;;0.95;;
12703;SDS011;6416;52.182;7.650;2022-09-09T13:37:49;1.33;;;0.70;;
12703;SDS011;6416;52.182;7.650;2022-09-09T13:40:18;1.27;;;0.70;;
12703;SDS011;6416;52.182;7.650;2022-09-09T13:42:45;1.52;;;0.60;;
12703;SDS011;6416;52.182;7.650;2022-09-09T13:45:15;2.10;;;0.68;;
12703;SDS011;6416;52.182;7.650;2022-09-09T13:47:43;1.17;;;0.50;;
12703;SDS011;6416;52.182;7.650;2022-09-09T13:52:48;2.58;;;0.82;;
12703;SDS011;6416;52.182;7.650;2022-09-09T13:55:14;1.30;;;0.75;;
12703;SDS011;6416;52.182;7.650;2022-09-09T13:57:49;2.25;;;0.93;;
12703;SDS011;6416;52.182;7.650;2022-09-09T14:00:16;6.00;;;1.02;;
12703;SDS011;6416;52.182;7.650;2022-09-09T14:02:41;2.40;;;0.77;;
12703;SDS011;6416;52.182;7.650;2022-09-09T14:05:07;3.00;;;0.88;;
12703;SDS011;6416;52.182;7.650;2022-09-09T14:07:32;5.82;;;0.60;;
12703;SDS011;6416;52.182;7.650;2022-09-09T14:09:58;2.47;;;1.20;;
12703;SDS011;6416;52.182;7.650;2022-09-09T14:12:23;2.35;;;1.20;;
12703;SDS011;6416;52.182;7.650;2022-09-09T14:14:49;1.10;;;0.70;;
12703;SDS011;6416;52.182;7.650;2022-09-09T14:17:14;0.90;;;0.70;;
12703;SDS011;6416;52.182;7.650;2022-09-09T14:19:40;1.35;;;0.90;;
12703;SDS011;6416;52.182;7.650;2022-09-09T14:22:05;1.70;;;1.10;;
12703;SDS011;6416;52.182;7.650;2022-09-09T14:24:30;1.00;;;0.77;;
12703;SDS011;6416;52.182;7.650;2022-09-09T14:26:56;1.00;;;0.90;;
12703;SDS011;6416;52.182;7.650;2022-09-09T14:29:21;0.60;;;0.60;;
12703;SDS011;6416;52.182;7.650;2022-09-09T14:31:47;1.85;;;0.98;;
12703;SDS011;6416;52.182;7.650;2022-09-09T14:34:12;1.23;;;0.90;;
12703;SDS011;6416;52.182;7.650;2022-09-09T14:36:38;1.05;;;0.73;;
12703;SDS011;6416;52.182;7.650;2022-09-09T14:39:04;1.00;;;0.77;;
12703;SDS011;6416;52.182;7.650;2022-09-09T14:41:29;1.08;;;0.98;;
12703;SDS011;6416;52.182;7.650;2022-09-09T14:43:55;2.72;;;0.70;;
12703;SDS011;6416;52.182;7.650;2022-09-09T14:46:20;1.45;;;0.88;;
12703;SDS011;6416;52.182;7.650;2022-09-09T14:48:46;1.05;;;0.68;;
12703;SDS011;6416;52.182;7.650;2022-09-09T14:51:16;1.30;;;0.80;;
12703;SDS011;6416;52.182;7.650;2022-09-09T14:53:42;1.38;;;0.75;;
12703;SDS011;6416;52.182;7.650;2022-09-09T14:56:09;1.23;;;0.82;;
12703;SDS011;6416;52.182;7.650;2022-09-09T14:58:40;1.48;;;1.05;;
12703;SDS011;6416;52.182;7.650;2022-09-09T15:01:07;2.30;;;0.80;;
12703;SDS011;6416;52.182;7.650;2022-09-09T15:03:35;0.80;;;0.70;;
12703;SDS011;6416;52.182;7.650;2022-09-09T15:06:04;1.48;;;0.82;;
12703;SDS011;6416;52.182;7.650;2022-09-09T15:08:35;1.35;;;0.85;;
12703;SDS011;6416;52.182;7.650;2022-09-09T15:11:01;0.75;;;0.52;;
12703;SDS011;6416;52.182;7.650;2022-09-09T15:13:28;0.98;;;0.63;;
12703;SDS011;6416;52.182;7.650;2022-09-09T15:15:53;1.05;;;0.65;;
12703;SDS011;6416;52.182;7.650;2022-09-09T15:18:19;1.13;;;0.90;;
12703;SDS011;6416;52.182;7.650;2022-09-09T15:20:45;0.88;;;0.70;;
12703;SDS011;6416;52.182;7.650;2022-09-09T15:23:11;1.25;;;0.73;;
12703;SDS011;6416;52.182;7.650;2022-09-09T15:25:36;0.60;;;0.60;;
12703;SDS011;6416;52.182;7.650;2022-09-09T15:28:02;0.88;;;0.70;;
12703;SDS011;6416;52.182;7.650;2022-09-09T15:30:27;1.33;;;0.88;;
12703;SDS011;6416;52.182;7.650;2022-09-09T15:32:53;2.42;;;0.85;;
12703;SDS011;6416;52.182;7.650;2022-09-09T15:35:18;1.73;;;0.77;;
12703;SDS011;6416;52.182;7.650;2022-09-09T15:37:44;1.10;;;0.70;;
12703;SDS011;6416;52.182;7.650;2022-09-09T15:40:09;1.80;;;1.00;;
12703;SDS011;6416;52.182;7.650;2022-09-09T15:42:35;1.17;;;0.90;;
12703;SDS011;6416;52.182;7.650;2022-09-09T15:45:00;1.38;;;0.70;;
12703;SDS011;6416;52.182;7.650;2022-09-09T15:47:26;1.90;;;0.98;;
12703;SDS011;6416;52.182;7.650;2022-09-09T15:49:51;1.77;;;0.85;;
12703;SDS011;6416;52.182;7.650;2022-09-09T15:52:17;1.73;;;0.70;;
12703;SDS011;6416;52.182;7.650;2022-09-09T15:54:42;1.98;;;0.75;;
12703;SDS011;6416;52.182;7.650;2022-09-09T15:57:11;2.00;;;0.90;;
12703;SDS011;6416;52.182;7.650;2022-09-09T15:59:38;1.80;;;0.80;;
12703;SDS011;6416;52.182;7.650;2022-09-09T16:02:03;1.45;;;0.95;;
12703;SDS011;6416;52.182;7.650;2022-09-09T16:04:29;1.67;;;0.90;;
12703;SDS011;6416;52.182;7.650;2022-09-09T16:07:04;1.30;;;0.70;;
12703;SDS011;6416;52.182;7.650;2022-09-09T16:09:33;1.05;;;0.90;;
12703;SDS011;6416;52.182;7.650;2022-09-09T16:11:59;1.25;;;0.60;;
12703;SDS011;6416;52.182;7.650;2022-09-09T16:14:26;1.20;;;0.70;;
12703;SDS011;6416;52.182;7.650;2022-09-09T16:16:52;1.08;;;0.63;;
12703;SDS011;6416;52.182;7.650;2022-09-09T16:19:18;2.78;;;1.05;;
12703;SDS011;6416;52.182;7.650;2022-09-09T16:21:47;1.63;;;0.73;;
12703;SDS011;6416;52.182;7.650;2022-09-09T16:24:15;2.35;;;0.80;;
12703;SDS011;6416;52.182;7.650;2022-09-09T16:26:43;1.85;;;0.75;;
12703;SDS011;6416;52.182;7.650;2022-09-09T16:29:12;1.48;;;0.70;;
12703;SDS011;6416;52.182;7.650;2022-09-09T16:31:38;1.55;;;0.77;;
12703;SDS011;6416;52.182;7.650;2022-09-09T16:34:03;2.15;;;0.80;;
12703;SDS011;6416;52.182;7.650;2022-09-09T16:36:30;1.20;;;0.70;;
12703;SDS011;6416;52.182;7.650;2022-09-09T16:38:58;0.70;;;0.70;;
12703;SDS011;6416;52.182;7.650;2022-09-09T16:41:25;1.38;;;0.77;;
12703;SDS011;6416;52.182;7.650;2022-09-09T16:43:55;1.60;;;0.73;;
12703;SDS011;6416;52.182;7.650;2022-09-09T16:46:22;1.00;;;0.73;;
12703;SDS011;6416;52.182;7.650;2022-09-09T16:48:49;1.77;;;0.93;;
12703;SDS011;6416;52.182;7.650;2022-09-09T16:51:19;1.25;;;0.75;;
12703;SDS011;6416;52.182;7.650;2022-09-09T16:53:46;1.45;;;0.90;;
12703;SDS011;6416;52.182;7.650;2022-09-09T16:56:13;3.60;;;0.90;;
12703;SDS011;6416;52.182;7.650;2022-09-09T16:58:41;1.25;;;0.80;;
12703;SDS011;6416;52.182;7.650;2022-09-09T17:01:07;2.08;;;1.20;;
12703;SDS011;6416;52.182;7.650;2022-09-09T17:03:32;3.80;;;1.13;;
12703;SDS011;6416;52.182;7.650;2022-09-09T17:05:58;1.80;;;0.90;;
12703;SDS011;6416;52.182;7.650;2022-09-09T17:08:24;2.03;;;1.05;;
12703;SDS011;6416;52.182;7.650;2022-09-09T17:10:49;1.15;;;0.70;;
12703;SDS011;6416;52.182;7.650;2022-09-09T17:13:15;2.20;;;0.88;;
12703;SDS011;6416;52.182;7.650;2022-09-09T17:15:42;2.03;;;0.75;;
12703;SDS011;6416;52.182;7.650;2022-09-09T17:18:08;1.08;;;0.80;;
12703;SDS011;6416;52.182;7.650;2022-09-09T17:20:38;0.88;;;0.75;;
12703;SDS011;6416;52.182;7.650;2022-09-09T17:23:05;1.02;;;0.80;;
12703;SDS011;6416;52.182;7.650;2022-09-09T17:25:31;1.80;;;1.13;;
12703;SDS011;6416;52.182;7.650;2022-09-09T17:27:57;1.70;;;0.90;;
12703;SDS011;6416;52.182;7.650;2022-09-09T17:30:23;1.67;;;0.90;;
12703;SDS011;6416;52.182;7.650;2022-09-09T17:32:48;1.88;;;1.10;;
12703;SDS011;6416;52.182;7.650;2022-09-09T17:35:14;1.88;;;1.00;;
12703;SDS011;6416;52.182;7.650;2022-09-09T17:37:40;1.55;;;0.80;;
12703;SDS011;6416;52.182;7.650;2022-09-09T17:40:05;1.67;;;1.00;;